sensor_id;sensor_type;location;lat;lon;timestamp;pressure;altitude;pressure_sealevel;temperature;humidity
82035;BME280;71599;49.892;18.914;2023-12-20T00:00:39;98252.56;;;4.82;49.76
82035;BME280;71599;49.892;18.914;2023-12-20T00:06:01;98239.66;;;4.79;50.41
82035;BME280;71599;49.892;18.914;2023-12-20T00:11:02;98225.59;;;4.86;49.88
82035;BME280;71599;49.892;18.914;2023-12-20T00:16:04;98214.69;;;4.95;49.82
82035;BME280;71599;49.892;18.914;2023-12-20T00:21:06;98207.13;;;5.00;48.79
82035;BME280;71599;49.892;18.914;2023-12-20T00:26:07;98204.06;;;5.02;49.71
82035;BME280;71599;49.892;18.914;2023-12-20T00:31:08;98208.72;;;5.01;49.95
82035;BME280;71599;49.892;18.914;2023-12-20T00:36:10;98206.41;;;4.91;50.81
82035;BME280;71599;49.892;18.914;2023-12-20T00:41:11;98188.59;;;4.90;50.51
82035;BME280;71599;49.892;18.914;2023-12-20T00:46:12;98186.13;;;4.97;48.93
82035;BME280;71599;49.892;18.914;2023-12-20T00:51:15;98176.66;;;5.03;48.94
82035;BME280;71599;49.892;18.914;2023-12-20T00:56:16;98165.94;;;5.07;48.66
82035;BME280;71599;49.892;18.914;2023-12-20T01:07:15;98155.31;;;5.26;46.99
82035;BME280;71599;49.892;18.914;2023-12-20T01:12:16;98150.81;;;5.42;46.60
82035;BME280;71599;49.892;18.914;2023-12-20T01:17:17;98152.59;;;5.38;46.78
82035;BME280;71599;49.892;18.914;2023-12-20T01:22:19;98146.75;;;5.24;47.61
82035;BME280;71599;49.892;18.914;2023-12-20T01:27:20;98136.81;;;5.16;47.99
82035;BME280;71599;49.892;18.914;2023-12-20T01:32:21;98135.34;;;5.06;48.13
82035;BME280;71599;49.892;18.914;2023-12-20T01:37:24;98131.16;;;5.09;47.09
82035;BME280;71599;49.892;18.914;2023-12-20T01:42:25;98119.91;;;5.07;48.31
82035;BME280;71599;49.892;18.914;2023-12-20T01:47:26;98106.38;;;5.07;47.98
82035;BME280;71599;49.892;18.914;2023-12-20T01:52:28;98119.13;;;5.06;47.57
82035;BME280;71599;49.892;18.914;2023-12-20T01:57:30;98115.16;;;5.04;47.90
82035;BME280;71599;49.892;18.914;2023-12-20T02:02:31;98092.38;;;4.92;49.19
82035;BME280;71599;49.892;18.914;2023-12-20T02:07:35;98071.03;;;4.79;48.18
82035;BME280;71599;49.892;18.914;2023-12-20T02:12:36;98057.97;;;4.69;49.14
82035;BME280;71599;49.892;18.914;2023-12-20T02:17:38;98067.31;;;4.71;49.24
82035;BME280;71599;49.892;18.914;2023-12-20T02:22:41;98065.28;;;4.68;49.66
82035;BME280;71599;49.892;18.914;2023-12-20T02:27:42;98056.69;;;4.66;49.69
82035;BME280;71599;49.892;18.914;2023-12-20T02:32:44;98060.41;;;4.49;50.58
82035;BME280;71599;49.892;18.914;2023-12-20T02:37:46;98057.06;;;4.53;50.89
82035;BME280;71599;49.892;18.914;2023-12-20T02:42:47;98059.75;;;4.53;50.43
82035;BME280;71599;49.892;18.914;2023-12-20T02:47:48;98055.78;;;4.50;50.90
82035;BME280;71599;49.892;18.914;2023-12-20T02:52:51;98047.34;;;4.39;50.54
82035;BME280;71599;49.892;18.914;2023-12-20T02:57:52;98056.25;;;4.40;51.42
82035;BME280;71599;49.892;18.914;2023-12-20T03:02:53;98047.78;;;4.41;51.29
82035;BME280;71599;49.892;18.914;2023-12-20T03:07:55;98056.91;;;4.49;50.27
82035;BME280;71599;49.892;18.914;2023-12-20T03:12:56;98057.63;;;4.58;50.05
82035;BME280;71599;49.892;18.914;2023-12-20T03:17:57;98052.22;;;4.70;49.92
82035;BME280;71599;49.892;18.914;2023-12-20T03:23:00;98051.28;;;4.78;49.28
82035;BME280;71599;49.892;18.914;2023-12-20T03:28:01;98042.38;;;4.90;48.56
82035;BME280;71599;49.892;18.914;2023-12-20T03:33:02;98041.13;;;5.00;49.24
82035;BME280;71599;49.892;18.914;2023-12-20T03:38:04;98042.38;;;5.02;49.98
82035;BME280;71599;49.892;18.914;2023-12-20T03:43:05;98034.59;;;5.01;51.59
82035;BME280;71599;49.892;18.914;2023-12-20T03:48:07;98039.22;;;5.00;52.80
82035;BME280;71599;49.892;18.914;2023-12-20T03:53:09;98046.66;;;4.91;54.07
82035;BME280;71599;49.892;18.914;2023-12-20T03:58:10;98065.28;;;4.80;58.19
82035;BME280;71599;49.892;18.914;2023-12-20T04:03:11;98061.78;;;4.68;60.14
82035;BME280;71599;49.892;18.914;2023-12-20T04:08:14;98063.91;;;4.50;62.26
82035;BME280;71599;49.892;18.914;2023-12-20T04:13:15;98078.97;;;4.27;64.70
82035;BME280;71599;49.892;18.914;2023-12-20T04:18:16;98078.28;;;4.18;64.78
82035;BME280;71599;49.892;18.914;2023-12-20T04:23:18;98069.91;;;4.10;65.95
82035;BME280;71599;49.892;18.914;2023-12-20T04:28:19;98064.13;;;4.00;66.52
82035;BME280;71599;49.892;18.914;2023-12-20T04:33:20;98057.25;;;3.90;67.78
82035;BME280;71599;49.892;18.914;2023-12-20T04:38:22;98069.88;;;3.78;69.16
82035;BME280;71599;49.892;18.914;2023-12-20T04:43:23;98052.50;;;3.66;69.86
82035;BME280;71599;49.892;18.914;2023-12-20T04:48:24;98052.56;;;3.58;70.75
82035;BME280;71599;49.892;18.914;2023-12-20T04:53:27;98030.91;;;3.46;71.33
82035;BME280;71599;49.892;18.914;2023-12-20T04:58:28;98028.25;;;3.37;71.83
82035;BME280;71599;49.892;18.914;2023-12-20T05:03:29;98030.19;;;3.37;72.34
82035;BME280;71599;49.892;18.914;2023-12-20T05:08:31;98019.78;;;3.47;71.82
82035;BME280;71599;49.892;18.914;2023-12-20T05:13:32;98033.91;;;3.44;72.64
82035;BME280;71599;49.892;18.914;2023-12-20T05:18:33;98024.44;;;3.38;73.10
82035;BME280;71599;49.892;18.914;2023-12-20T05:23:36;98022.94;;;3.28;73.94
82035;BME280;71599;49.892;18.914;2023-12-20T05:28:37;98022.34;;;3.23;74.50
82035;BME280;71599;49.892;18.914;2023-12-20T05:33:38;98012.19;;;3.20;74.77
82035;BME280;71599;49.892;18.914;2023-12-20T05:38:40;98028.53;;;3.23;74.89
82035;BME280;71599;49.892;18.914;2023-12-20T05:43:41;98038.94;;;3.34;75.13
82035;BME280;71599;49.892;18.914;2023-12-20T05:48:42;98037.22;;;3.29;75.25
82035;BME280;71599;49.892;18.914;2023-12-20T05:53:44;98037.09;;;3.25;75.33
82035;BME280;71599;49.892;18.914;2023-12-20T05:58:45;98027.28;;;3.21;76.14
82035;BME280;71599;49.892;18.914;2023-12-20T06:03:46;98038.78;;;3.09;77.43
82035;BME280;71599;49.892;18.914;2023-12-20T06:08:49;98029.38;;;3.15;77.19
82035;BME280;71599;49.892;18.914;2023-12-20T06:13:50;98032.72;;;3.12;77.14
82035;BME280;71599;49.892;18.914;2023-12-20T06:18:51;98050.06;;;3.11;77.42
82035;BME280;71599;49.892;18.914;2023-12-20T06:23:53;98050.78;;;3.00;77.81
82035;BME280;71599;49.892;18.914;2023-12-20T06:28:54;98050.31;;;2.98;78.15
82035;BME280;71599;49.892;18.914;2023-12-20T06:33:55;98050.50;;;2.93;78.81
82035;BME280;71599;49.892;18.914;2023-12-20T06:38:58;98056.53;;;2.89;78.50
82035;BME280;71599;49.892;18.914;2023-12-20T06:43:59;98067.00;;;2.91;78.83
82035;BME280;71599;49.892;18.914;2023-12-20T06:49:00;98074.28;;;2.99;79.14
82035;BME280;71599;49.892;18.914;2023-12-20T06:54:02;98086.19;;;2.98;79.72
82035;BME280;71599;49.892;18.914;2023-12-20T06:59:03;98082.50;;;3.03;79.99
82035;BME280;71599;49.892;18.914;2023-12-20T07:04:04;98089.63;;;3.07;79.99
82035;BME280;71599;49.892;18.914;2023-12-20T07:09:07;98093.72;;;3.13;80.07
82035;BME280;71599;49.892;18.914;2023-12-20T07:14:08;98093.44;;;3.36;80.27
82035;BME280;71599;49.892;18.914;2023-12-20T07:19:09;98103.13;;;3.37;79.63
82035;BME280;71599;49.892;18.914;2023-12-20T07:24:11;98101.38;;;3.32;79.64
82035;BME280;71599;49.892;18.914;2023-12-20T07:29:12;98101.53;;;3.36;79.51
82035;BME280;71599;49.892;18.914;2023-12-20T07:34:13;98112.97;;;3.32;79.93
82035;BME280;71599;49.892;18.914;2023-12-20T07:39:16;98117.72;;;3.36;79.79
82035;BME280;71599;49.892;18.914;2023-12-20T07:44:17;98125.84;;;3.36;79.70
82035;BME280;71599;49.892;18.914;2023-12-20T07:49:19;98121.75;;;3.29;79.95
82035;BME280;71599;49.892;18.914;2023-12-20T07:54:21;98126.47;;;3.32;79.90
82035;BME280;71599;49.892;18.914;2023-12-20T07:59:22;98121.75;;;3.29;80.02
82035;BME280;71599;49.892;18.914;2023-12-20T08:04:23;98126.53;;;3.24;80.03
82035;BME280;71599;49.892;18.914;2023-12-20T08:09:25;98120.88;;;3.38;80.18
82035;BME280;71599;49.892;18.914;2023-12-20T08:14:27;98113.25;;;3.40;79.71
82035;BME280;71599;49.892;18.914;2023-12-20T08:19:28;98100.81;;;3.47;79.90
82035;BME280;71599;49.892;18.914;2023-12-20T08:24:31;98103.34;;;3.44;80.20
82035;BME280;71599;49.892;18.914;2023-12-20T08:29:32;98096.19;;;3.48;80.29
82035;BME280;71599;49.892;18.914;2023-12-20T08:34:33;98097.50;;;3.42;80.04
82035;BME280;71599;49.892;18.914;2023-12-20T08:39:35;98093.75;;;3.34;80.11
82035;BME280;71599;49.892;18.914;2023-12-20T08:44:36;98102.91;;;3.42;80.04
82035;BME280;71599;49.892;18.914;2023-12-20T08:49:37;98111.03;;;3.42;80.22
82035;BME280;71599;49.892;18.914;2023-12-20T08:54:39;98101.97;;;3.38;80.10
82035;BME280;71599;49.892;18.914;2023-12-20T08:59:40;98115.06;;;3.27;80.01
82035;BME280;71599;49.892;18.914;2023-12-20T09:04:41;98114.34;;;3.18;79.83
82035;BME280;71599;49.892;18.914;2023-12-20T09:09:44;98124.47;;;3.21;79.90
82035;BME280;71599;49.892;18.914;2023-12-20T09:14:45;98120.72;;;3.13;80.40
82035;BME280;71599;49.892;18.914;2023-12-20T09:19:46;98111.50;;;3.14;80.82
82035;BME280;71599;49.892;18.914;2023-12-20T09:24:48;98113.09;;;3.15;80.73
82035;BME280;71599;49.892;18.914;2023-12-20T09:29:49;98105.25;;;3.22;80.65
82035;BME280;71599;49.892;18.914;2023-12-20T09:34:50;98103.47;;;3.26;80.65
82035;BME280;71599;49.892;18.914;2023-12-20T09:39:53;98101.38;;;3.32;80.94
82035;BME280;71599;49.892;18.914;2023-12-20T09:44:55;98098.56;;;3.28;80.64
82035;BME280;71599;49.892;18.914;2023-12-20T09:49:57;98089.53;;;3.24;80.77
82035;BME280;71599;49.892;18.914;2023-12-20T09:55:00;98089.25;;;3.17;80.83
82035;BME280;71599;49.892;18.914;2023-12-20T10:00:02;98086.47;;;3.26;80.63
82035;BME280;71599;49.892;18.914;2023-12-20T10:05:06;98075.56;;;3.22;80.66
82035;BME280;71599;49.892;18.914;2023-12-20T10:10:10;98077.34;;;3.18;80.87
82035;BME280;71599;49.892;18.914;2023-12-20T10:15:12;98089.38;;;3.21;80.58
82035;BME280;71599;49.892;18.914;2023-12-20T10:20:13;98085.44;;;3.18;80.87
82035;BME280;71599;49.892;18.914;2023-12-20T10:25:16;98093.06;;;3.16;80.91
82035;BME280;71599;49.892;18.914;2023-12-20T10:30:17;98090.84;;;3.18;81.16
82035;BME280;71599;49.892;18.914;2023-12-20T10:35:19;98089.69;;;3.19;81.50
82035;BME280;71599;49.892;18.914;2023-12-20T10:40:22;98096.91;;;3.36;81.08
82035;BME280;71599;49.892;18.914;2023-12-20T10:45:23;98087.69;;;3.37;81.06
82035;BME280;71599;49.892;18.914;2023-12-20T10:50:24;98089.59;;;3.37;80.90
82035;BME280;71599;49.892;18.914;2023-12-20T10:55:27;98093.88;;;3.38;80.86
82035;BME280;71599;49.892;18.914;2023-12-20T11:00:29;98095.00;;;3.37;80.58
82035;BME280;71599;49.892;18.914;2023-12-20T11:05:33;98096.97;;;3.27;80.70
82035;BME280;71599;49.892;18.914;2023-12-20T11:10:43;98090.06;;;3.18;80.83
82035;BME280;71599;49.892;18.914;2023-12-20T11:15:49;98098.56;;;3.28;80.79
82035;BME280;71599;49.892;18.914;2023-12-20T11:20:50;98089.66;;;3.28;80.60
82035;BME280;71599;49.892;18.914;2023-12-20T11:25:54;98088.59;;;3.20;80.54
82035;BME280;71599;49.892;18.914;2023-12-20T11:30:56;98079.69;;;3.20;80.55
82035;BME280;71599;49.892;18.914;2023-12-20T11:35:59;98088.59;;;3.20;80.96
82035;BME280;71599;49.892;18.914;2023-12-20T11:41:05;98083.47;;;3.27;80.84
82035;BME280;71599;49.892;18.914;2023-12-20T11:46:08;98071.66;;;3.32;80.53
82035;BME280;71599;49.892;18.914;2023-12-20T11:51:10;98058.97;;;3.32;80.56
82035;BME280;71599;49.892;18.914;2023-12-20T11:56:12;98066.41;;;3.36;80.28
82035;BME280;71599;49.892;18.914;2023-12-20T12:01:13;98072.72;;;3.40;80.32
82035;BME280;71599;49.892;18.914;2023-12-20T12:06:14;98081.50;;;3.37;80.49
82035;BME280;71599;49.892;18.914;2023-12-20T12:11:17;98085.44;;;3.39;80.61
82035;BME280;71599;49.892;18.914;2023-12-20T12:16:19;98088.94;;;3.40;80.71
82035;BME280;71599;49.892;18.914;2023-12-20T12:21:20;98079.53;;;3.46;80.32
82035;BME280;71599;49.892;18.914;2023-12-20T12:26:24;98075.81;;;3.50;79.79
82035;BME280;71599;49.892;18.914;2023-12-20T12:31:25;98063.44;;;3.49;79.84
82035;BME280;71599;49.892;18.914;2023-12-20T12:36:27;98061.09;;;3.48;79.22
82035;BME280;71599;49.892;18.914;2023-12-20T12:41:30;98062.00;;;3.52;79.74
82035;BME280;71599;49.892;18.914;2023-12-20T12:46:31;98063.44;;;3.49;79.41
82035;BME280;71599;49.892;18.914;2023-12-20T12:51:32;98047.91;;;3.46;79.37
82035;BME280;71599;49.892;18.914;2023-12-20T12:56:34;98058.50;;;3.51;79.24
82035;BME280;71599;49.892;18.914;2023-12-20T13:01:35;98061.09;;;3.48;78.75
82035;BME280;71599;49.892;18.914;2023-12-20T13:06:37;98056.66;;;3.43;78.72
82035;BME280;71599;49.892;18.914;2023-12-20T13:11:39;98061.09;;;3.48;78.43
82035;BME280;71599;49.892;18.914;2023-12-20T13:16:40;98063.78;;;3.48;78.63
82035;BME280;71599;49.892;18.914;2023-12-20T13:21:41;98040.44;;;3.43;78.32
82035;BME280;71599;49.892;18.914;2023-12-20T13:26:44;98039.22;;;3.41;78.10
82035;BME280;71599;49.892;18.914;2023-12-20T13:31:45;98032.41;;;3.35;77.99
82035;BME280;71599;49.892;18.914;2023-12-20T13:36:46;98036.44;;;3.28;77.91
82035;BME280;71599;49.892;18.914;2023-12-20T13:41:49;98030.13;;;3.24;77.90
82035;BME280;71599;49.892;18.914;2023-12-20T13:46:50;98035.06;;;3.22;77.49
82035;BME280;71599;49.892;18.914;2023-12-20T13:51:51;98054.28;;;3.21;77.34
82035;BME280;71599;49.892;18.914;2023-12-20T13:56:53;98068.78;;;3.16;77.48
82035;BME280;71599;49.892;18.914;2023-12-20T14:01:54;98056.19;;;3.20;77.62
82035;BME280;71599;49.892;18.914;2023-12-20T14:06:55;98059.44;;;3.35;77.38
82035;BME280;71599;49.892;18.914;2023-12-20T14:11:58;98029.72;;;3.35;77.26
82035;BME280;71599;49.892;18.914;2023-12-20T14:16:59;98041.97;;;3.32;77.24
82035;BME280;71599;49.892;18.914;2023-12-20T14:22:00;98054.22;;;3.29;77.25
82035;BME280;71599;49.892;18.914;2023-12-20T14:27:03;98050.75;;;3.29;77.15
82035;BME280;71599;49.892;18.914;2023-12-20T14:32:05;98046.56;;;3.31;77.03
82035;BME280;71599;49.892;18.914;2023-12-20T14:37:06;98069.75;;;3.32;76.88
82035;BME280;71599;49.892;18.914;2023-12-20T14:42:08;98052.44;;;3.34;76.45
82035;BME280;71599;49.892;18.914;2023-12-20T14:47:09;98045.84;;;3.22;76.69
82035;BME280;71599;49.892;18.914;2023-12-20T14:52:10;98047.56;;;3.27;76.69
82035;BME280;71599;49.892;18.914;2023-12-20T14:57:13;98046.06;;;3.17;76.29
82035;BME280;71599;49.892;18.914;2023-12-20T15:02:14;98044.84;;;3.06;76.12
82035;BME280;71599;49.892;18.914;2023-12-20T15:07:15;98046.50;;;2.99;76.15
82035;BME280;71599;49.892;18.914;2023-12-20T15:12:17;98041.81;;;2.87;76.32
82035;BME280;71599;49.892;18.914;2023-12-20T15:17:19;98029.00;;;2.75;76.59
82035;BME280;71599;49.892;18.914;2023-12-20T15:22:20;98046.75;;;2.76;76.79
82035;BME280;71599;49.892;18.914;2023-12-20T15:27:22;98042.16;;;2.77;76.59
82035;BME280;71599;49.892;18.914;2023-12-20T15:32:23;98040.13;;;2.74;76.87
82035;BME280;71599;49.892;18.914;2023-12-20T15:37:24;98029.34;;;2.74;76.54
82035;BME280;71599;49.892;18.914;2023-12-20T15:42:27;98032.03;;;2.74;76.31
82035;BME280;71599;49.892;18.914;2023-12-20T15:47:28;98022.38;;;2.64;75.96
82035;BME280;71599;49.892;18.914;2023-12-20T15:52:29;98036.34;;;2.66;75.68
82035;BME280;71599;49.892;18.914;2023-12-20T15:57:31;98039.88;;;2.58;75.40
82035;BME280;71599;49.892;18.914;2023-12-20T16:02:32;98047.31;;;2.61;75.85
82035;BME280;71599;49.892;18.914;2023-12-20T16:07:34;98038.56;;;2.64;75.60
82035;BME280;71599;49.892;18.914;2023-12-20T16:12:37;98037.13;;;2.67;75.39
82035;BME280;71599;49.892;18.914;2023-12-20T16:17:38;98048.84;;;2.71;75.07
82035;BME280;71599;49.892;18.914;2023-12-20T16:22:39;98050.25;;;2.77;75.18
82035;BME280;71599;49.892;18.914;2023-12-20T16:27:43;98051.03;;;2.77;74.77
82035;BME280;71599;49.892;18.914;2023-12-20T16:32:45;98049.94;;;2.78;74.69
82035;BME280;71599;49.892;18.914;2023-12-20T16:37:47;98054.06;;;2.76;74.72
82035;BME280;71599;49.892;18.914;2023-12-20T16:42:50;98043.75;;;2.78;74.97
82035;BME280;71599;49.892;18.914;2023-12-20T16:47:51;98039.66;;;2.72;75.02
82035;BME280;71599;49.892;18.914;2023-12-20T16:52:52;98043.47;;;2.71;74.91
82035;BME280;71599;49.892;18.914;2023-12-20T16:57:54;98036.03;;;2.68;74.98
82035;BME280;71599;49.892;18.914;2023-12-20T17:02:56;98039.06;;;2.58;75.06
82035;BME280;71599;49.892;18.914;2023-12-20T17:07:58;98032.28;;;2.52;74.95
82035;BME280;71599;49.892;18.914;2023-12-20T17:13:01;98038.81;;;2.51;74.73
82035;BME280;71599;49.892;18.914;2023-12-20T17:18:02;98041.66;;;2.45;74.86
82035;BME280;71599;49.892;18.914;2023-12-20T17:23:03;98046.78;;;2.38;74.92
82035;BME280;71599;49.892;18.914;2023-12-20T17:28:06;98046.31;;;2.36;75.06
82035;BME280;71599;49.892;18.914;2023-12-20T17:33:07;98056.91;;;2.41;75.05
82035;BME280;71599;49.892;18.914;2023-12-20T17:38:08;98050.25;;;2.47;75.24
82035;BME280;71599;49.892;18.914;2023-12-20T17:43:13;98037.41;;;2.44;74.94
82035;BME280;71599;49.892;18.914;2023-12-20T17:48:15;98050.81;;;2.62;74.92
82035;BME280;71599;49.892;18.914;2023-12-20T17:53:16;98055.72;;;2.68;74.36
82035;BME280;71599;49.892;18.914;2023-12-20T17:58:19;98054.41;;;2.74;73.71
82035;BME280;71599;49.892;18.914;2023-12-20T18:03:20;98059.47;;;2.76;73.50
82035;BME280;71599;49.892;18.914;2023-12-20T18:08:22;98058.69;;;2.75;73.08
82035;BME280;71599;49.892;18.914;2023-12-20T18:13:24;98050.91;;;2.74;72.88
82035;BME280;71599;49.892;18.914;2023-12-20T18:18:25;98051.63;;;2.62;72.67
82035;BME280;71599;49.892;18.914;2023-12-20T18:23:27;98053.00;;;2.68;72.47
82035;BME280;71599;49.892;18.914;2023-12-20T18:28:38;98056.75;;;2.76;72.08
82035;BME280;71599;49.892;18.914;2023-12-20T18:33:41;98053.44;;;2.79;71.86
82035;BME280;71599;49.892;18.914;2023-12-20T18:38:42;98053.91;;;2.81;71.77
82035;BME280;71599;49.892;18.914;2023-12-20T18:43:48;98050.72;;;2.79;71.39
82035;BME280;71599;49.892;18.914;2023-12-20T18:48:52;98046.25;;;2.83;71.27
82035;BME280;71599;49.892;18.914;2023-12-20T18:53:55;98057.84;;;2.83;71.23
82035;BME280;71599;49.892;18.914;2023-12-20T18:59:09;98049.69;;;2.92;70.95
82035;BME280;71599;49.892;18.914;2023-12-20T19:04:12;98063.19;;;2.92;70.74
82035;BME280;71599;49.892;18.914;2023-12-20T19:09:14;98060.50;;;2.92;70.70
82035;BME280;71599;49.892;18.914;2023-12-20T19:14:17;98043.75;;;2.78;70.92
82035;BME280;71599;49.892;18.914;2023-12-20T19:19:19;98040.44;;;2.72;70.55
82035;BME280;71599;49.892;18.914;2023-12-20T19:24:23;98037.66;;;2.60;70.69
82035;BME280;71599;49.892;18.914;2023-12-20T19:29:33;98038.97;;;2.45;70.83
82035;BME280;71599;49.892;18.914;2023-12-20T19:34:35;98041.66;;;2.45;71.13
82035;BME280;71599;49.892;18.914;2023-12-20T19:39:36;98038.03;;;2.50;70.88
82035;BME280;71599;49.892;18.914;2023-12-20T19:44:41;98036.63;;;2.44;70.82
82035;BME280;71599;49.892;18.914;2023-12-20T19:49:42;98025.34;;;2.42;70.58
82035;BME280;71599;49.892;18.914;2023-12-20T19:54:45;98027.72;;;2.43;70.91
82035;BME280;71599;49.892;18.914;2023-12-20T19:59:48;98019.97;;;2.42;70.68
82035;BME280;71599;49.892;18.914;2023-12-20T20:04:54;98027.44;;;2.36;70.76
82035;BME280;71599;49.892;18.914;2023-12-20T20:09:56;98037.72;;;2.43;70.83
82035;BME280;71599;49.892;18.914;2023-12-20T20:14:59;98037.84;;;2.46;70.49
82035;BME280;71599;49.892;18.914;2023-12-20T20:20:02;98017.75;;;2.35;70.58
82035;BME280;71599;49.892;18.914;2023-12-20T20:25:03;98023.97;;;2.27;70.61
82035;BME280;71599;49.892;18.914;2023-12-20T20:30:09;98022.69;;;2.33;70.24
82035;BME280;71599;49.892;18.914;2023-12-20T20:35:10;98017.03;;;2.26;70.36
82035;BME280;71599;49.892;18.914;2023-12-20T20:40:13;98014.78;;;2.28;70.33
82035;BME280;71599;49.892;18.914;2023-12-20T20:45:17;98019.38;;;2.28;70.28
82035;BME280;71599;49.892;18.914;2023-12-20T20:50:19;98033.19;;;2.26;70.37
82035;BME280;71599;49.892;18.914;2023-12-20T20:55:20;98019.72;;;2.26;69.85
82035;BME280;71599;49.892;18.914;2023-12-20T21:00:23;98009.25;;;2.25;69.77
82035;BME280;71599;49.892;18.914;2023-12-20T21:05:25;98012.56;;;2.30;69.82
82035;BME280;71599;49.892;18.914;2023-12-20T21:10:26;98010.78;;;2.34;69.63
82035;BME280;71599;49.892;18.914;2023-12-20T21:15:30;98006.34;;;2.38;69.62
82035;BME280;71599;49.892;18.914;2023-12-20T21:20:31;97998.09;;;2.35;69.70
82035;BME280;71599;49.892;18.914;2023-12-20T21:25:33;97996.66;;;2.37;69.82
82035;BME280;71599;49.892;18.914;2023-12-20T21:30:37;97999.19;;;2.42;69.65
82035;BME280;71599;49.892;18.914;2023-12-20T21:35:38;98004.69;;;2.46;69.55
82035;BME280;71599;49.892;18.914;2023-12-20T21:40:39;97997.88;;;2.48;69.27
82035;BME280;71599;49.892;18.914;2023-12-20T21:45:42;97978.69;;;2.50;69.59
82035;BME280;71599;49.892;18.914;2023-12-20T21:50:43;97985.66;;;2.51;69.61
82035;BME280;71599;49.892;18.914;2023-12-20T22:00:53;97979.09;;;2.61;69.64
82035;BME280;71599;49.892;18.914;2023-12-20T22:05:54;97958.63;;;2.60;69.69
82035;BME280;71599;49.892;18.914;2023-12-20T22:10:55;97968.72;;;2.71;69.76
82035;BME280;71599;49.892;18.914;2023-12-20T22:15:57;97957.06;;;2.79;69.43
82035;BME280;71599;49.892;18.914;2023-12-20T22:20:58;97958.00;;;2.83;69.41
82035;BME280;71599;49.892;18.914;2023-12-20T22:25:59;97959.09;;;2.82;68.89
82035;BME280;71599;49.892;18.914;2023-12-20T22:31:02;97967.94;;;2.92;69.07
82035;BME280;71599;49.892;18.914;2023-12-20T22:36:03;97964.47;;;2.91;69.19
82035;BME280;71599;49.892;18.914;2023-12-20T22:41:04;97958.25;;;2.90;68.98
82035;BME280;71599;49.892;18.914;2023-12-20T22:46:06;97954.91;;;2.94;68.97
82035;BME280;71599;49.892;18.914;2023-12-20T22:51:07;97949.84;;;2.92;68.94
82035;BME280;71599;49.892;18.914;2023-12-20T22:56:08;97951.16;;;2.86;69.06
82035;BME280;71599;49.892;18.914;2023-12-20T23:01:11;97943.50;;;2.88;68.97
82035;BME280;71599;49.892;18.914;2023-12-20T23:06:12;97929.09;;;2.84;69.03
82035;BME280;71599;49.892;18.914;2023-12-20T23:11:13;97938.78;;;2.85;69.27
82035;BME280;71599;49.892;18.914;2023-12-20T23:16:15;97925.50;;;2.80;69.50
82035;BME280;71599;49.892;18.914;2023-12-20T23:21:16;97917.19;;;2.85;69.58
82035;BME280;71599;49.892;18.914;2023-12-20T23:26:17;97913.81;;;2.88;69.40
82035;BME280;71599;49.892;18.914;2023-12-20T23:31:23;97901.19;;;2.80;69.50
82035;BME280;71599;49.892;18.914;2023-12-20T23:36:24;97898.63;;;2.83;69.60
82035;BME280;71599;49.892;18.914;2023-12-20T23:41:25;97901.25;;;2.71;69.93
82035;BME280;71599;49.892;18.914;2023-12-20T23:46:27;97890.25;;;2.76;69.92
82035;BME280;71599;49.892;18.914;2023-12-20T23:51:28;97889.41;;;2.64;70.36
82035;BME280;71599;49.892;18.914;2023-12-20T23:56:29;97901.34;;;2.63;70.64
